createdAt,value
2018-04-30T00:01:27.579Z,93060.97
2018-04-30T00:03:55.251Z,93066.05
2018-04-30T00:06:22.865Z,93060.91
2018-04-30T00:08:50.536Z,93059.41
2018-04-30T00:11:18.193Z,93067.73
2018-04-30T00:13:45.814Z,93060.52
2018-04-30T00:16:13.524Z,93048.51
2018-04-30T00:18:41.163Z,93050.98
2018-04-30T00:21:08.837Z,93054.39
2018-04-30T00:23:36.450Z,93037.38
2018-04-30T00:26:04.067Z,93037.53
2018-04-30T00:28:31.715Z,93036.37
2018-04-30T00:30:59.392Z,93036.38
2018-04-30T00:33:27.055Z,93031.49
2018-04-30T00:35:54.670Z,93029.71
2018-04-30T00:38:22.322Z,93025.78
2018-04-30T00:40:49.977Z,93013.31
2018-04-30T00:43:17.644Z,93017.56
2018-04-30T00:45:45.360Z,93013.01
2018-04-30T00:48:13.020Z,93000.34
2018-04-30T00:50:40.747Z,93003.77
2018-04-30T00:53:08.413Z,93012.59
2018-04-30T00:55:36.520Z,93006.64
2018-04-30T00:58:04.125Z,93013.19
2018-04-30T01:00:31.918Z,93008.02
2018-04-30T01:02:59.539Z,93009.95
2018-04-30T01:05:27.167Z,93006.83
2018-04-30T01:07:54.836Z,93010.05
2018-04-30T01:10:22.558Z,93003.52
2018-04-30T01:12:50.166Z,92993.75
2018-04-30T01:15:17.815Z,92994.48
2018-04-30T01:17:45.444Z,93007.03
2018-04-30T01:20:13.095Z,93001.95
2018-04-30T01:22:40.724Z,92998.72
2018-04-30T01:25:08.341Z,93000.05
2018-04-30T01:27:36.005Z,93005.66
2018-04-30T01:30:03.644Z,93001.61
2018-04-30T01:32:31.332Z,92997.61
2018-04-30T01:34:59.055Z,92983.64
2018-04-30T01:37:26.747Z,92981.20
2018-04-30T01:39:54.824Z,92978.38
2018-04-30T01:42:22.531Z,92981.66
2018-04-30T01:44:50.114Z,92974.83
2018-04-30T01:47:17.734Z,92970.44
2018-04-30T01:49:45.385Z,92967.03
2018-04-30T01:52:13.040Z,92966.19
2018-04-30T01:54:40.877Z,92965.51
2018-04-30T01:57:08.549Z,92960.88
2018-04-30T01:59:36.436Z,92949.40
2018-04-30T02:02:04.195Z,92950.96
2018-04-30T02:04:31.882Z,92956.79
2018-04-30T02:06:59.549Z,92958.62
2018-04-30T02:09:27.193Z,92963.03
2018-04-30T02:11:54.848Z,92961.34
2018-04-30T02:14:22.456Z,92951.48
2018-04-30T02:16:50.111Z,92959.79
2018-04-30T02:19:17.758Z,92951.88
2018-04-30T02:21:45.399Z,92948.50
2018-04-30T02:24:13.017Z,92955.01
2018-04-30T02:26:40.709Z,92961.45
2018-04-30T02:29:08.321Z,92962.47
2018-04-30T02:31:36.013Z,92953.60
2018-04-30T02:34:03.717Z,92957.44
2018-04-30T02:36:31.331Z,92949.97
2018-04-30T02:38:59.041Z,92947.55
2018-04-30T02:41:26.713Z,92951.18
2018-04-30T02:43:54.403Z,92951.52
2018-04-30T02:46:22.065Z,92947.03
2018-04-30T02:48:49.712Z,92942.13
2018-04-30T02:51:17.401Z,92947.98
2018-04-30T02:53:45.003Z,92935.16
2018-04-30T02:56:13.734Z,92946.80
2018-04-30T02:58:41.341Z,92932.41
2018-04-30T03:01:08.983Z,92922.92
2018-04-30T03:03:36.633Z,92927.31
2018-04-30T03:06:04.283Z,92915.13
2018-04-30T03:08:31.939Z,92918.47
2018-04-30T03:10:59.546Z,92917.30
2018-04-30T03:13:27.203Z,92913.81
2018-04-30T03:15:54.856Z,92913.39
2018-04-30T03:18:22.469Z,92910.18
2018-04-30T03:20:50.087Z,92915.10
2018-04-30T03:23:17.751Z,92923.66
2018-04-30T03:25:45.387Z,92924.65
2018-04-30T03:28:13.098Z,92923.36
2018-04-30T03:30:40.771Z,92902.55
2018-04-30T03:33:08.461Z,92909.36
2018-04-30T03:35:36.079Z,92914.78
2018-04-30T03:38:03.684Z,92921.11
2018-04-30T03:40:31.387Z,92910.16
2018-04-30T03:42:59.054Z,92915.37
2018-04-30T03:45:26.697Z,92914.10
2018-04-30T03:47:54.430Z,92914.25
2018-04-30T03:50:22.035Z,92919.68
2018-04-30T03:52:49.744Z,92915.23
2018-04-30T03:55:17.438Z,92918.40
2018-04-30T03:57:45.123Z,92916.20
2018-04-30T04:00:24.612Z,92925.16
2018-04-30T04:03:04.036Z,92928.73
2018-04-30T04:05:43.374Z,92918.47
2018-04-30T04:08:11.238Z,92924.87
2018-04-30T04:10:38.900Z,92930.76
2018-04-30T04:13:06.671Z,92927.31
2018-04-30T04:15:34.352Z,92922.47
2018-04-30T04:18:02.606Z,92935.14
2018-04-30T04:20:30.216Z,92928.91
2018-04-30T04:22:57.935Z,92932.05
2018-04-30T04:25:25.662Z,92929.59
2018-04-30T04:27:53.388Z,92940.15
2018-04-30T04:30:21.005Z,92939.48
2018-04-30T04:32:48.718Z,92948.63
2018-04-30T04:35:16.381Z,92945.50
2018-04-30T04:37:44.966Z,92944.82
2018-04-30T04:40:14.726Z,92944.48
2018-04-30T04:42:42.384Z,92947.72
2018-04-30T04:45:09.965Z,92954.36
2018-04-30T04:47:37.618Z,92963.48
2018-04-30T04:50:05.279Z,92955.13
2018-04-30T04:52:32.911Z,92962.11
2018-04-30T04:55:00.555Z,92967.52
2018-04-30T04:57:28.214Z,92962.67
2018-04-30T04:59:55.823Z,92955.09
2018-04-30T05:02:23.625Z,92969.11
2018-04-30T05:04:51.164Z,92976.34
2018-04-30T05:07:19.754Z,92980.97
2018-04-30T05:09:47.397Z,92976.62
2018-04-30T05:12:15.174Z,92972.44
2018-04-30T05:14:43.269Z,92975.00
2018-04-30T05:17:11.123Z,92969.16
2018-04-30T05:19:38.733Z,92973.99
2018-04-30T05:22:06.548Z,92975.69
2018-04-30T05:24:34.310Z,92981.72
2018-04-30T05:27:02.353Z,92975.88
2018-04-30T05:29:29.956Z,92980.16
2018-04-30T05:31:57.693Z,92990.08
2018-04-30T05:34:25.405Z,92992.22
2018-04-30T05:36:53.341Z,92988.41
2018-04-30T05:39:21.206Z,92986.48
2018-04-30T05:41:48.901Z,92989.70
2018-04-30T05:44:16.532Z,92986.96
2018-04-30T05:46:44.405Z,92991.19
2018-04-30T05:49:12.209Z,92980.32
2018-04-30T05:51:39.871Z,92984.20
2018-04-30T05:54:07.568Z,92981.25
2018-04-30T05:56:35.239Z,92975.84
2018-04-30T05:59:03.001Z,92983.89
2018-04-30T06:01:30.652Z,92984.00
2018-04-30T06:03:58.274Z,92986.43
2018-04-30T06:06:25.937Z,92984.09
2018-04-30T06:08:53.570Z,92976.25
2018-04-30T06:11:21.517Z,92970.39
2018-04-30T06:13:49.386Z,92978.33
2018-04-30T06:16:16.988Z,92987.31
2018-04-30T06:18:45.530Z,92983.27
2018-04-30T06:21:13.831Z,92983.56
2018-04-30T06:23:41.600Z,92996.13
2018-04-30T06:26:09.339Z,93005.41
2018-04-30T06:28:36.956Z,92999.23
2018-04-30T06:31:05.703Z,93002.43
2018-04-30T06:33:34.056Z,93016.16
2018-04-30T06:36:01.838Z,93014.63
2018-04-30T06:38:29.816Z,93026.14
2018-04-30T06:40:57.477Z,93028.55
2018-04-30T06:43:25.331Z,93023.83
2018-04-30T06:45:53.259Z,93026.63
2018-04-30T06:48:20.960Z,93027.30
2018-04-30T06:50:48.637Z,93020.06
2018-04-30T06:53:16.392Z,93014.45
2018-04-30T06:55:44.039Z,93024.41
2018-04-30T06:58:11.821Z,93019.83
2018-04-30T07:00:39.903Z,93021.98
2018-04-30T07:03:07.599Z,93021.96
2018-04-30T07:05:35.219Z,93023.87
2018-04-30T07:08:03.545Z,93025.63
2018-04-30T07:10:31.205Z,93028.72
2018-04-30T07:12:58.834Z,93027.66
2018-04-30T07:15:26.486Z,93026.32
2018-04-30T07:17:54.154Z,93019.97
2018-04-30T07:20:21.769Z,93016.55
2018-04-30T07:22:49.584Z,93008.35
2018-04-30T07:25:17.332Z,93007.48
2018-04-30T07:27:45.227Z,93003.79
2018-04-30T07:30:13.065Z,92993.61
2018-04-30T07:32:41.101Z,93010.05
2018-04-30T07:35:09.233Z,93005.85
2018-04-30T07:37:37.081Z,93009.64
2018-04-30T07:40:04.874Z,93017.25
2018-04-30T07:42:33.335Z,93017.06
2018-04-30T07:45:01.084Z,93017.72
2018-04-30T07:47:29.540Z,93028.13
2018-04-30T07:49:57.194Z,93035.34
2018-04-30T07:52:25.033Z,93022.03
2018-04-30T07:54:53.360Z,93024.19
2018-04-30T07:57:21.241Z,93030.35
2018-04-30T07:59:49.212Z,93030.47
2018-04-30T08:02:16.833Z,93034.14
2018-04-30T08:04:44.927Z,93040.48
2018-04-30T08:07:12.936Z,93037.41
2018-04-30T08:09:41.704Z,93047.67
2018-04-30T08:12:09.912Z,93058.83
2018-04-30T08:14:37.580Z,93055.33
2018-04-30T08:17:05.169Z,93055.83
2018-04-30T08:19:33.033Z,93061.24
2018-04-30T08:22:00.628Z,93066.61
2018-04-30T08:24:28.314Z,93070.48
2018-04-30T08:26:57.112Z,93087.61
2018-04-30T08:29:25.271Z,93089.39
2018-04-30T08:31:53.176Z,93090.17
2018-04-30T08:34:21.301Z,93097.82
2018-04-30T08:36:48.975Z,93091.73
2018-04-30T08:39:16.587Z,93100.27
2018-04-30T08:41:44.240Z,93101.02
2018-04-30T08:44:12.253Z,93097.00
2018-04-30T08:46:39.944Z,93080.58
2018-04-30T08:49:07.694Z,93080.73
2018-04-30T08:51:35.383Z,93073.05
2018-04-30T08:54:03.324Z,93064.25
2018-04-30T08:56:31.181Z,93060.09
2018-04-30T08:58:59.268Z,93054.56
2018-04-30T09:01:27.132Z,93032.16
2018-04-30T09:03:55.512Z,93024.59
2018-04-30T09:06:23.439Z,93026.41
2018-04-30T09:08:51.078Z,93023.98
2018-04-30T09:11:18.953Z,93027.36
2018-04-30T09:13:46.805Z,93022.16
2018-04-30T09:16:14.543Z,93017.39
2018-04-30T09:18:42.414Z,93017.51
2018-04-30T09:21:10.560Z,93017.58
2018-04-30T09:23:38.229Z,93011.44
2018-04-30T09:26:06.927Z,93008.01
2018-04-30T09:28:34.796Z,93003.07
2018-04-30T09:31:02.458Z,93010.23
2018-04-30T09:33:30.183Z,93012.30
2018-04-30T09:35:57.974Z,93000.49
2018-04-30T09:38:25.635Z,93009.16
2018-04-30T09:40:53.290Z,93015.80
2018-04-30T09:43:20.923Z,93023.88
2018-04-30T09:45:49.193Z,93036.06
2018-04-30T09:48:17.013Z,93023.82
2018-04-30T09:50:44.702Z,93016.00
2018-04-30T09:53:12.342Z,93021.48
2018-04-30T09:55:40.017Z,93038.69
2018-04-30T09:58:07.664Z,93028.84
2018-04-30T10:00:35.299Z,93031.08
2018-04-30T10:03:02.923Z,93040.89
2018-04-30T10:05:30.638Z,93044.92
2018-04-30T10:07:58.822Z,93042.53
2018-04-30T10:10:26.492Z,93032.31
2018-04-30T10:12:54.174Z,93033.75
2018-04-30T10:15:21.818Z,93036.52
2018-04-30T10:17:49.704Z,93029.89
2018-04-30T10:20:17.444Z,93034.70
2018-04-30T10:22:45.068Z,93028.73
2018-04-30T10:25:13.006Z,93012.77
2018-04-30T10:27:40.587Z,93000.22
2018-04-30T10:30:08.532Z,93008.55
2018-04-30T10:32:36.165Z,93016.98
2018-04-30T10:35:04.295Z,92994.47
2018-04-30T10:37:32.110Z,93001.34
2018-04-30T10:39:59.701Z,93000.70
2018-04-30T10:42:27.346Z,92993.38
2018-04-30T10:44:55.185Z,92990.57
2018-04-30T10:47:23.232Z,92994.70
2018-04-30T10:49:50.829Z,92992.16
2018-04-30T10:52:18.427Z,92995.14
2018-04-30T10:54:46.063Z,93003.89
2018-04-30T10:57:13.697Z,92998.59
2018-04-30T10:59:41.359Z,93000.97
2018-04-30T11:02:08.997Z,93002.88
2018-04-30T11:04:36.705Z,93002.00
2018-04-30T11:07:04.347Z,92996.41
2018-04-30T11:09:32.023Z,92994.48
2018-04-30T11:12:00.689Z,92995.02
2018-04-30T11:14:28.338Z,92997.06
2018-04-30T11:16:56.093Z,93007.06
2018-04-30T11:19:23.705Z,92998.26
2018-04-30T11:21:51.354Z,93005.66
2018-04-30T11:24:18.963Z,93008.59
2018-04-30T11:26:46.674Z,93005.51
2018-04-30T11:29:14.289Z,93008.80
2018-04-30T11:31:41.955Z,93012.49
2018-04-30T11:34:09.585Z,93004.30
2018-04-30T11:36:37.308Z,93009.02
2018-04-30T11:39:05.126Z,93008.67
2018-04-30T11:41:32.950Z,93007.92
2018-04-30T11:44:00.841Z,93018.36
2018-04-30T11:46:28.506Z,93002.23
2018-04-30T11:48:56.379Z,93012.11
2018-04-30T11:51:24.059Z,93020.18
2018-04-30T11:53:51.688Z,93023.81
2018-04-30T11:56:19.366Z,93032.70
2018-04-30T11:58:47.056Z,93027.22
2018-04-30T12:01:14.818Z,93021.11
2018-04-30T12:03:42.495Z,93031.08
2018-04-30T12:06:10.137Z,93026.30
2018-04-30T12:08:37.839Z,93033.78
2018-04-30T12:11:05.545Z,93026.60
2018-04-30T12:13:33.152Z,93022.54
2018-04-30T12:16:00.778Z,93017.46
2018-04-30T12:18:28.533Z,93003.77
2018-04-30T12:20:56.876Z,93017.18
2018-04-30T12:23:24.945Z,93010.45
2018-04-30T12:25:53.511Z,93018.23
2018-04-30T12:28:21.283Z,93011.73
2018-04-30T12:30:48.971Z,93009.17
2018-04-30T12:33:16.661Z,93009.04
2018-04-30T12:35:44.457Z,93003.12
2018-04-30T12:38:12.101Z,93012.20
2018-04-30T12:40:39.764Z,93001.73
2018-04-30T12:43:07.409Z,93004.74
2018-04-30T12:45:35.093Z,92996.61
2018-04-30T12:48:02.946Z,93001.88
2018-04-30T12:50:30.800Z,93004.39
2018-04-30T12:52:59.433Z,93011.30
2018-04-30T12:55:27.305Z,93001.56
2018-04-30T12:57:55.100Z,92988.23
2018-04-30T13:00:22.859Z,93004.44
2018-04-30T13:02:50.683Z,93005.63
2018-04-30T13:05:19.043Z,92999.03
2018-04-30T13:07:46.682Z,93016.69
2018-04-30T13:10:14.341Z,93006.02
2018-04-30T13:12:42.017Z,93010.27
2018-04-30T13:15:09.708Z,93000.03
2018-04-30T13:17:37.440Z,93000.67
2018-04-30T13:20:05.169Z,93002.36
2018-04-30T13:22:32.807Z,93006.77
2018-04-30T13:25:00.520Z,93002.80
2018-04-30T13:27:28.124Z,93003.73
2018-04-30T13:29:55.798Z,93008.09
2018-04-30T13:32:23.429Z,93000.62
2018-04-30T13:34:51.057Z,92998.69
2018-04-30T13:37:18.750Z,93004.19
2018-04-30T13:39:47.181Z,92998.80
2018-04-30T13:42:14.882Z,93002.30
2018-04-30T13:44:42.538Z,93007.41
2018-04-30T13:47:10.229Z,93011.19
2018-04-30T13:49:37.889Z,93004.33
2018-04-30T13:52:05.596Z,93005.41
2018-04-30T13:54:33.495Z,92999.75
2018-04-30T13:57:01.163Z,93002.26
2018-04-30T13:59:28.861Z,93000.23
2018-04-30T14:01:56.521Z,93000.26
2018-04-30T14:04:24.224Z,93002.73
2018-04-30T14:06:51.902Z,92998.64
2018-04-30T14:09:19.553Z,92988.33
2018-04-30T14:11:47.205Z,92976.50
2018-04-30T14:14:14.919Z,92986.61
2018-04-30T14:16:42.668Z,92994.78
2018-04-30T14:19:10.303Z,92994.31
2018-04-30T14:21:38.442Z,92992.95
2018-04-30T14:24:06.158Z,92998.20
2018-04-30T14:26:33.846Z,92999.98
2018-04-30T14:29:01.524Z,92994.14
2018-04-30T14:31:29.190Z,92998.56
2018-04-30T14:33:56.817Z,92997.90
2018-04-30T14:36:24.606Z,92995.00
2018-04-30T14:38:52.620Z,92997.66
2018-04-30T14:41:20.642Z,92992.41
2018-04-30T14:43:48.359Z,93001.94
2018-04-30T14:46:17.581Z,92995.35
2018-04-30T14:48:45.402Z,92999.20
2018-04-30T14:51:14.377Z,92999.75
2018-04-30T14:53:43.370Z,92990.34
2018-04-30T14:56:11.093Z,92990.56
2018-04-30T14:58:39.606Z,92996.52
2018-04-30T15:01:07.647Z,92996.58
2018-04-30T15:03:35.596Z,92992.84
2018-04-30T15:06:03.534Z,92989.08
2018-04-30T15:08:31.403Z,92997.16
2018-04-30T15:10:59.098Z,92996.08
2018-04-30T15:13:26.967Z,92986.81
2018-04-30T15:15:54.647Z,92994.67
2018-04-30T15:18:23.106Z,92988.08
2018-04-30T15:20:50.770Z,92998.00
2018-04-30T15:23:20.018Z,93000.28
2018-04-30T15:25:47.961Z,92996.73
2018-04-30T15:28:16.219Z,92994.14
2018-04-30T15:30:43.879Z,92994.53
2018-04-30T15:33:11.676Z,92998.48
2018-04-30T15:35:39.857Z,92997.18
2018-04-30T15:38:08.658Z,92997.91
2018-04-30T15:40:36.298Z,93006.89
2018-04-30T15:43:04.019Z,93001.62
2018-04-30T15:45:31.771Z,92999.94
2018-04-30T15:47:59.931Z,93003.28
2018-04-30T15:50:27.581Z,93004.48
2018-04-30T15:52:55.214Z,93015.66
2018-04-30T15:55:22.863Z,93008.12
2018-04-30T15:57:50.511Z,93012.75
2018-04-30T16:00:18.167Z,93010.22
2018-04-30T16:02:45.792Z,93018.43
2018-04-30T16:05:13.494Z,93018.59
2018-04-30T16:07:41.159Z,93014.97
2018-04-30T16:10:10.036Z,93018.39
2018-04-30T16:12:37.700Z,93024.05
2018-04-30T16:15:05.373Z,93024.94
2018-04-30T16:17:33.073Z,93027.13
2018-04-30T16:20:00.729Z,93022.27
2018-04-30T16:22:28.350Z,93014.00
2018-04-30T16:24:56.058Z,93011.37
2018-04-30T16:27:24.684Z,93014.95
2018-04-30T16:29:52.379Z,93020.00
2018-04-30T16:32:20.082Z,93018.59
2018-04-30T16:34:47.699Z,93023.32
2018-04-30T16:37:15.324Z,93027.25
2018-04-30T16:39:43.011Z,93035.23
2018-04-30T16:42:10.750Z,93046.08
2018-04-30T16:44:38.460Z,93047.81
2018-04-30T16:47:06.141Z,93049.36
2018-04-30T16:49:33.819Z,93050.27
2018-04-30T16:52:01.415Z,93055.08
2018-04-30T16:54:29.100Z,93056.78
2018-04-30T16:56:56.743Z,93055.31
2018-04-30T16:59:24.461Z,93053.82
2018-04-30T17:01:52.176Z,93054.19
2018-04-30T17:04:19.875Z,93062.35
2018-04-30T17:06:47.472Z,93065.42
2018-04-30T17:09:15.136Z,93067.98
2018-04-30T17:11:42.803Z,93069.78
2018-04-30T17:14:10.522Z,93075.16
2018-04-30T17:16:38.197Z,93086.95
2018-04-30T17:19:05.848Z,93093.13
2018-04-30T17:21:33.509Z,93094.39
2018-04-30T17:24:01.206Z,93101.19
2018-04-30T17:26:28.836Z,93104.02
2018-04-30T17:28:56.533Z,93107.62
2018-04-30T17:31:24.143Z,93113.48
2018-04-30T17:33:52.130Z,93115.09
2018-04-30T17:36:19.863Z,93121.97
2018-04-30T17:38:47.461Z,93124.26
2018-04-30T17:41:15.253Z,93129.59
2018-04-30T17:43:43.457Z,93132.80
2018-04-30T17:46:11.152Z,93135.80
2018-04-30T17:48:39.080Z,93133.73
2018-04-30T17:51:06.727Z,93133.77
2018-04-30T17:53:34.364Z,93143.86
2018-04-30T17:56:02.019Z,93145.02
2018-04-30T17:58:29.623Z,93155.31
2018-04-30T18:00:57.262Z,93154.78
2018-04-30T18:03:24.884Z,93157.42
2018-04-30T18:05:52.541Z,93166.13
2018-04-30T18:08:20.248Z,93171.70
2018-04-30T18:10:47.944Z,93171.14
2018-04-30T18:13:15.611Z,93183.37
2018-04-30T18:15:43.270Z,93189.51
2018-04-30T18:18:11.002Z,93190.22
2018-04-30T18:20:38.963Z,93203.26
2018-04-30T18:23:06.667Z,93199.23
2018-04-30T18:25:34.283Z,93193.47
2018-04-30T18:28:02.873Z,93198.56
2018-04-30T18:30:30.524Z,93201.63
2018-04-30T18:32:58.845Z,93207.77
2018-04-30T18:35:26.504Z,93208.41
2018-04-30T18:37:54.123Z,93212.28
2018-04-30T18:40:21.795Z,93212.70
2018-04-30T18:42:49.503Z,93219.20
2018-04-30T18:45:17.108Z,93216.31
2018-04-30T18:47:44.744Z,93225.30
2018-04-30T18:50:12.424Z,93225.72
2018-04-30T18:52:40.022Z,93229.30
2018-04-30T18:55:07.712Z,93234.91
2018-04-30T18:57:35.395Z,93239.80
2018-04-30T19:00:03.010Z,93245.38
2018-04-30T19:02:30.713Z,93247.36
2018-04-30T19:04:58.379Z,93254.40
2018-04-30T19:07:26.073Z,93258.94
2018-04-30T19:09:53.767Z,93260.33
2018-04-30T19:12:21.564Z,93266.73
2018-04-30T19:14:49.243Z,93270.93
2018-04-30T19:17:17.779Z,93272.39
2018-04-30T19:19:45.469Z,93274.61
2018-04-30T19:22:13.173Z,93281.34
2018-04-30T19:24:42.105Z,93278.40
2018-04-30T19:27:09.868Z,93278.56
2018-04-30T19:29:37.495Z,93283.52
2018-04-30T19:32:05.203Z,93279.52
2018-04-30T19:34:34.005Z,93280.63
2018-04-30T19:37:01.628Z,93285.25
2018-04-30T19:39:29.337Z,93282.91
2018-04-30T19:41:57.043Z,93297.66
2018-04-30T19:44:24.730Z,93296.61
2018-04-30T19:46:52.533Z,93299.77
2018-04-30T19:49:20.229Z,93308.86
2018-04-30T19:51:47.891Z,93310.56
2018-04-30T19:54:15.946Z,93320.51
2018-04-30T19:56:43.633Z,93316.07
2018-04-30T19:59:11.348Z,93313.84
2018-04-30T20:01:39.049Z,93316.90
2018-04-30T20:04:06.710Z,93317.37
2018-04-30T20:06:34.450Z,93312.72
2018-04-30T20:09:02.120Z,93311.80
2018-04-30T20:11:29.814Z,93317.73
2018-04-30T20:13:57.520Z,93322.56
2018-04-30T20:16:25.283Z,93318.64
2018-04-30T20:18:53.807Z,93325.57
2018-04-30T20:21:21.615Z,93319.55
2018-04-30T20:23:49.334Z,93326.13
2018-04-30T20:26:16.988Z,93332.38
2018-04-30T20:28:44.682Z,93329.23
2018-04-30T20:31:12.396Z,93325.33
2018-04-30T20:33:40.156Z,93328.72
2018-04-30T20:36:07.882Z,93337.86
2018-04-30T20:38:36.257Z,93343.22
2018-04-30T20:41:04.024Z,93343.98
2018-04-30T20:43:31.680Z,93347.11
2018-04-30T20:46:00.492Z,93344.64
2018-04-30T20:48:28.842Z,93349.63
2018-04-30T20:50:56.531Z,93356.52
2018-04-30T20:53:25.452Z,93354.66
2018-04-30T20:55:53.188Z,93362.52
2018-04-30T20:58:20.800Z,93370.42
2018-04-30T21:00:48.469Z,93365.88
2018-04-30T21:03:16.396Z,93362.66
2018-04-30T21:05:44.251Z,93359.22
2018-04-30T21:08:11.960Z,93363.56
2018-04-30T21:10:40.589Z,93362.52
2018-04-30T21:13:08.234Z,93362.25
2018-04-30T21:15:35.973Z,93358.77
2018-04-30T21:18:03.645Z,93368.64
2018-04-30T21:20:32.014Z,93372.65
2018-04-30T21:23:00.718Z,93369.66
2018-04-30T21:25:28.319Z,93375.83
2018-04-30T21:27:55.939Z,93374.34
2018-04-30T21:30:23.622Z,93385.98
2018-04-30T21:32:51.364Z,93391.69
2018-04-30T21:35:19.732Z,93398.94
2018-04-30T21:37:47.403Z,93397.11
2018-04-30T21:40:15.081Z,93392.02
2018-04-30T21:42:43.777Z,93384.50
2018-04-30T21:45:11.477Z,93387.86
2018-04-30T21:47:39.190Z,93382.66
2018-04-30T21:50:06.850Z,93389.94
2018-04-30T21:52:34.549Z,93392.80
2018-04-30T21:55:02.381Z,93388.84
2018-04-30T21:57:30.117Z,93394.55
2018-04-30T21:59:58.017Z,93391.53
2018-04-30T22:02:25.724Z,93399.27
2018-04-30T22:04:53.847Z,93397.85
2018-04-30T22:07:21.549Z,93404.48
2018-04-30T22:09:49.269Z,93406.45
2018-04-30T22:12:18.390Z,93419.17
2018-04-30T22:14:46.061Z,93418.91
2018-04-30T22:17:13.782Z,93427.84
2018-04-30T22:19:41.395Z,93437.24
2018-04-30T22:22:09.091Z,93429.11
2018-04-30T22:24:36.738Z,93430.53
2018-04-30T22:27:04.355Z,93425.94
2018-04-30T22:29:32.013Z,93425.56
2018-04-30T22:31:59.919Z,93434.00
2018-04-30T22:34:27.605Z,93426.62
2018-04-30T22:36:55.294Z,93425.36
2018-04-30T22:39:22.960Z,93429.76
2018-04-30T22:41:51.425Z,93435.95
2018-04-30T22:44:19.102Z,93438.66
2018-04-30T22:46:46.738Z,93440.19
2018-04-30T22:49:14.821Z,93440.86
2018-04-30T22:51:42.416Z,93453.70
2018-04-30T22:54:10.359Z,93457.77
2018-04-30T22:56:37.944Z,93463.17
2018-04-30T22:59:06.010Z,93464.16
2018-04-30T23:01:34.039Z,93469.95
2018-04-30T23:04:01.740Z,93470.02
2018-04-30T23:06:29.425Z,93474.17
2018-04-30T23:08:57.050Z,93474.09
2018-04-30T23:11:24.733Z,93464.87
2018-04-30T23:13:52.447Z,93456.09
2018-04-30T23:16:20.082Z,93451.91
2018-04-30T23:18:47.817Z,93452.45
2018-04-30T23:21:15.603Z,93462.30
2018-04-30T23:23:43.209Z,93462.22
2018-04-30T23:26:11.185Z,93466.91
2018-04-30T23:28:39.243Z,93473.39
2018-04-30T23:31:06.860Z,93474.55
2018-04-30T23:33:35.597Z,93481.91
2018-04-30T23:36:03.234Z,93492.70
2018-04-30T23:38:31.735Z,93480.58
2018-04-30T23:40:59.484Z,93482.20
2018-04-30T23:43:27.068Z,93485.58
2018-04-30T23:45:54.727Z,93488.48
2018-04-30T23:48:22.343Z,93486.52
2018-04-30T23:50:50.041Z,93494.28
2018-04-30T23:53:18.038Z,93489.72
2018-04-30T23:55:45.678Z,93496.83
2018-04-30T23:58:13.278Z,93499.02
